sensor_id;sensor_type;location;lat;lon;timestamp;temperature;humidity
15926;DHT22;8062;53.882;10.642;2022-09-09T00:00:25;14.50;99.90
15926;DHT22;8062;53.882;10.642;2022-09-09T00:01:46;14.40;99.90
15926;DHT22;8062;53.882;10.642;2022-09-09T00:03:12;14.50;99.90
15926;DHT22;8062;53.882;10.642;2022-09-09T00:05:36;14.50;99.90
15926;DHT22;8062;53.882;10.642;2022-09-09T00:06:56;14.50;99.90
15926;DHT22;8062;53.882;10.642;2022-09-09T00:08:00;14.40;99.90
15926;DHT22;8062;53.882;10.642;2022-09-09T00:09:17;14.50;99.90
15926;DHT22;8062;53.882;10.642;2022-09-09T00:10:42;14.50;99.90
15926;DHT22;8062;53.882;10.642;2022-09-09T00:13:18;14.50;99.90
15926;DHT22;8062;53.882;10.642;2022-09-09T00:14:58;14.50;99.90
15926;DHT22;8062;53.882;10.642;2022-09-09T00:16:07;14.50;99.90
15926;DHT22;8062;53.882;10.642;2022-09-09T00:18:49;14.50;99.90
15926;DHT22;8062;53.882;10.642;2022-09-09T00:21:16;14.40;99.90
15926;DHT22;8062;53.882;10.642;2022-09-09T00:22:20;14.40;99.90
15926;DHT22;8062;53.882;10.642;2022-09-09T00:23:33;14.40;99.90
15926;DHT22;8062;53.882;10.642;2022-09-09T00:24:45;14.40;99.90
15926;DHT22;8062;53.882;10.642;2022-09-09T00:25:56;14.40;99.90
15926;DHT22;8062;53.882;10.642;2022-09-09T00:27:19;14.40;99.90
15926;DHT22;8062;53.882;10.642;2022-09-09T00:28:23;14.40;99.90
15926;DHT22;8062;53.882;10.642;2022-09-09T00:30:34;14.40;99.90
15926;DHT22;8062;53.882;10.642;2022-09-09T00:31:36;14.40;99.90
15926;DHT22;8062;53.882;10.642;2022-09-09T00:32:38;14.40;99.90
15926;DHT22;8062;53.882;10.642;2022-09-09T00:33:40;14.50;99.90
15926;DHT22;8062;53.882;10.642;2022-09-09T00:34:49;14.40;99.90
15926;DHT22;8062;53.882;10.642;2022-09-09T00:35:54;14.50;99.90
15926;DHT22;8062;53.882;10.642;2022-09-09T00:36:57;14.50;99.90
15926;DHT22;8062;53.882;10.642;2022-09-09T00:38:08;14.50;99.90
15926;DHT22;8062;53.882;10.642;2022-09-09T00:39:27;14.50;99.90
15926;DHT22;8062;53.882;10.642;2022-09-09T00:40:35;14.50;99.90
15926;DHT22;8062;53.882;10.642;2022-09-09T00:43:21;14.50;99.90
15926;DHT22;8062;53.882;10.642;2022-09-09T00:44:31;14.50;99.90
15926;DHT22;8062;53.882;10.642;2022-09-09T00:46:05;14.50;99.90
15926;DHT22;8062;53.882;10.642;2022-09-09T00:48:18;14.50;99.90
15926;DHT22;8062;53.882;10.642;2022-09-09T00:49:44;14.60;99.90
15926;DHT22;8062;53.882;10.642;2022-09-09T00:51:02;14.60;99.90
15926;DHT22;8062;53.882;10.642;2022-09-09T00:54:29;14.60;99.90
15926;DHT22;8062;53.882;10.642;2022-09-09T00:57:58;14.60;99.90
15926;DHT22;8062;53.882;10.642;2022-09-09T00:59:28;14.60;99.90
15926;DHT22;8062;53.882;10.642;2022-09-09T01:00:44;14.60;99.90
15926;DHT22;8062;53.882;10.642;2022-09-09T01:01:47;14.60;99.90
15926;DHT22;8062;53.882;10.642;2022-09-09T01:03:55;14.60;99.90
15926;DHT22;8062;53.882;10.642;2022-09-09T01:05:10;14.60;99.90
15926;DHT22;8062;53.882;10.642;2022-09-09T01:07:32;14.60;99.90
15926;DHT22;8062;53.882;10.642;2022-09-09T01:10:26;14.70;99.90
15926;DHT22;8062;53.882;10.642;2022-09-09T01:12:51;14.60;99.90
15926;DHT22;8062;53.882;10.642;2022-09-09T01:14:13;14.60;99.90
15926;DHT22;8062;53.882;10.642;2022-09-09T01:15:22;14.60;99.90
15926;DHT22;8062;53.882;10.642;2022-09-09T01:16:26;14.60;99.90
15926;DHT22;8062;53.882;10.642;2022-09-09T01:17:35;14.60;99.90
15926;DHT22;8062;53.882;10.642;2022-09-09T01:18:46;14.60;99.90
15926;DHT22;8062;53.882;10.642;2022-09-09T01:20:06;14.60;99.90
15926;DHT22;8062;53.882;10.642;2022-09-09T01:21:50;14.60;99.90
15926;DHT22;8062;53.882;10.642;2022-09-09T01:23:21;14.60;99.90
15926;DHT22;8062;53.882;10.642;2022-09-09T01:26:38;14.60;99.90
15926;DHT22;8062;53.882;10.642;2022-09-09T01:27:45;14.60;99.90
15926;DHT22;8062;53.882;10.642;2022-09-09T01:28:49;14.60;99.90
15926;DHT22;8062;53.882;10.642;2022-09-09T01:29:54;14.60;99.90
15926;DHT22;8062;53.882;10.642;2022-09-09T01:30:57;14.60;99.90
15926;DHT22;8062;53.882;10.642;2022-09-09T01:33:41;14.70;99.90
15926;DHT22;8062;53.882;10.642;2022-09-09T01:34:42;14.70;99.90
15926;DHT22;8062;53.882;10.642;2022-09-09T01:36:04;14.70;99.90
15926;DHT22;8062;53.882;10.642;2022-09-09T01:37:16;14.70;99.90
15926;DHT22;8062;53.882;10.642;2022-09-09T01:38:17;14.60;99.90
15926;DHT22;8062;53.882;10.642;2022-09-09T01:39:19;14.60;99.90
15926;DHT22;8062;53.882;10.642;2022-09-09T01:40:26;14.60;99.90
15926;DHT22;8062;53.882;10.642;2022-09-09T01:41:29;14.60;99.90
15926;DHT22;8062;53.882;10.642;2022-09-09T01:42:43;14.60;99.90
15926;DHT22;8062;53.882;10.642;2022-09-09T01:43:44;14.50;99.90
15926;DHT22;8062;53.882;10.642;2022-09-09T01:44:45;14.50;99.90
15926;DHT22;8062;53.882;10.642;2022-09-09T01:45:48;14.50;99.90
15926;DHT22;8062;53.882;10.642;2022-09-09T01:46:50;14.50;99.90
15926;DHT22;8062;53.882;10.642;2022-09-09T01:47:54;14.50;99.90
15926;DHT22;8062;53.882;10.642;2022-09-09T01:49:14;14.50;99.90
15926;DHT22;8062;53.882;10.642;2022-09-09T01:50:17;14.50;99.90
15926;DHT22;8062;53.882;10.642;2022-09-09T01:51:18;14.50;99.90
15926;DHT22;8062;53.882;10.642;2022-09-09T01:52:19;14.50;99.90
15926;DHT22;8062;53.882;10.642;2022-09-09T01:53:21;14.50;99.90
15926;DHT22;8062;53.882;10.642;2022-09-09T01:54:27;14.50;99.90
15926;DHT22;8062;53.882;10.642;2022-09-09T01:55:37;14.50;99.90
15926;DHT22;8062;53.882;10.642;2022-09-09T01:57:22;14.50;99.90
15926;DHT22;8062;53.882;10.642;2022-09-09T01:58:43;14.50;99.90
15926;DHT22;8062;53.882;10.642;2022-09-09T01:59:58;14.50;99.90
15926;DHT22;8062;53.882;10.642;2022-09-09T02:02:21;14.40;99.90
15926;DHT22;8062;53.882;10.642;2022-09-09T02:03:38;14.40;99.90
15926;DHT22;8062;53.882;10.642;2022-09-09T02:04:52;14.40;99.90
15926;DHT22;8062;53.882;10.642;2022-09-09T02:06:13;14.40;99.90
15926;DHT22;8062;53.882;10.642;2022-09-09T02:08:42;14.40;99.90
15926;DHT22;8062;53.882;10.642;2022-09-09T02:09:49;14.40;99.90
15926;DHT22;8062;53.882;10.642;2022-09-09T02:12:23;14.40;99.90
15926;DHT22;8062;53.882;10.642;2022-09-09T02:13:29;14.40;99.90
15926;DHT22;8062;53.882;10.642;2022-09-09T02:14:38;14.40;99.90
15926;DHT22;8062;53.882;10.642;2022-09-09T02:16:00;14.40;99.90
15926;DHT22;8062;53.882;10.642;2022-09-09T02:17:09;14.40;99.90
15926;DHT22;8062;53.882;10.642;2022-09-09T02:18:32;14.40;99.90
15926;DHT22;8062;53.882;10.642;2022-09-09T02:19:42;14.50;99.90
15926;DHT22;8062;53.882;10.642;2022-09-09T02:20:56;14.50;99.90
15926;DHT22;8062;53.882;10.642;2022-09-09T02:22:00;14.50;99.90
15926;DHT22;8062;53.882;10.642;2022-09-09T02:23:04;14.50;99.90
15926;DHT22;8062;53.882;10.642;2022-09-09T02:24:06;14.50;99.90
15926;DHT22;8062;53.882;10.642;2022-09-09T02:25:15;14.50;99.90
15926;DHT22;8062;53.882;10.642;2022-09-09T02:26:19;14.60;99.90
15926;DHT22;8062;53.882;10.642;2022-09-09T02:27:27;14.60;99.90
15926;DHT22;8062;53.882;10.642;2022-09-09T02:28:30;14.60;99.90
15926;DHT22;8062;53.882;10.642;2022-09-09T02:29:35;14.60;99.90
15926;DHT22;8062;53.882;10.642;2022-09-09T02:30:38;14.60;99.90
15926;DHT22;8062;53.882;10.642;2022-09-09T02:31:42;14.60;99.90
15926;DHT22;8062;53.882;10.642;2022-09-09T02:32:50;14.60;99.90
15926;DHT22;8062;53.882;10.642;2022-09-09T02:33:59;14.60;99.90
15926;DHT22;8062;53.882;10.642;2022-09-09T02:35:15;14.60;99.90
15926;DHT22;8062;53.882;10.642;2022-09-09T02:36:19;14.60;99.90
15926;DHT22;8062;53.882;10.642;2022-09-09T02:37:27;14.60;99.90
15926;DHT22;8062;53.882;10.642;2022-09-09T02:38:32;14.60;99.90
15926;DHT22;8062;53.882;10.642;2022-09-09T02:39:41;14.60;99.90
15926;DHT22;8062;53.882;10.642;2022-09-09T02:40:46;14.60;99.90
15926;DHT22;8062;53.882;10.642;2022-09-09T02:41:47;14.60;99.90
15926;DHT22;8062;53.882;10.642;2022-09-09T02:42:49;14.60;99.90
15926;DHT22;8062;53.882;10.642;2022-09-09T02:43:52;14.60;99.90
15926;DHT22;8062;53.882;10.642;2022-09-09T02:44:54;14.60;99.90
15926;DHT22;8062;53.882;10.642;2022-09-09T02:47:35;14.50;99.90
15926;DHT22;8062;53.882;10.642;2022-09-09T02:48:59;14.60;99.90
15926;DHT22;8062;53.882;10.642;2022-09-09T02:53:17;14.60;99.90
15926;DHT22;8062;53.882;10.642;2022-09-09T02:54:27;14.60;99.90
15926;DHT22;8062;53.882;10.642;2022-09-09T02:55:47;14.60;99.90
15926;DHT22;8062;53.882;10.642;2022-09-09T02:56:53;14.60;99.90
15926;DHT22;8062;53.882;10.642;2022-09-09T02:58:09;14.50;99.90
15926;DHT22;8062;53.882;10.642;2022-09-09T02:59:11;14.50;99.90
15926;DHT22;8062;53.882;10.642;2022-09-09T03:00:13;14.50;99.90
15926;DHT22;8062;53.882;10.642;2022-09-09T03:01:14;14.50;99.90
15926;DHT22;8062;53.882;10.642;2022-09-09T03:02:16;14.50;99.90
15926;DHT22;8062;53.882;10.642;2022-09-09T03:03:22;14.60;99.90
15926;DHT22;8062;53.882;10.642;2022-09-09T03:04:25;14.60;99.90
15926;DHT22;8062;53.882;10.642;2022-09-09T03:05:26;14.50;99.90
15926;DHT22;8062;53.882;10.642;2022-09-09T03:06:28;14.50;99.90
15926;DHT22;8062;53.882;10.642;2022-09-09T03:07:38;14.50;99.90
15926;DHT22;8062;53.882;10.642;2022-09-09T03:08:41;14.50;99.90
15926;DHT22;8062;53.882;10.642;2022-09-09T03:09:43;14.50;99.90
15926;DHT22;8062;53.882;10.642;2022-09-09T03:10:45;14.50;99.90
15926;DHT22;8062;53.882;10.642;2022-09-09T03:11:49;14.50;99.90
15926;DHT22;8062;53.882;10.642;2022-09-09T03:12:51;14.50;99.90
15926;DHT22;8062;53.882;10.642;2022-09-09T03:13:53;14.50;99.90
15926;DHT22;8062;53.882;10.642;2022-09-09T03:14:56;14.50;99.90
15926;DHT22;8062;53.882;10.642;2022-09-09T03:15:58;14.40;99.90
15926;DHT22;8062;53.882;10.642;2022-09-09T03:17:01;14.50;99.90
15926;DHT22;8062;53.882;10.642;2022-09-09T03:18:06;14.50;99.90
15926;DHT22;8062;53.882;10.642;2022-09-09T03:19:08;14.50;99.90
15926;DHT22;8062;53.882;10.642;2022-09-09T03:20:10;14.50;99.90
15926;DHT22;8062;53.882;10.642;2022-09-09T03:21:12;14.40;99.90
15926;DHT22;8062;53.882;10.642;2022-09-09T03:22:14;14.50;99.90
15926;DHT22;8062;53.882;10.642;2022-09-09T03:23:17;14.50;99.90
15926;DHT22;8062;53.882;10.642;2022-09-09T03:24:20;14.50;99.90
15926;DHT22;8062;53.882;10.642;2022-09-09T03:25:23;14.50;99.90
15926;DHT22;8062;53.882;10.642;2022-09-09T03:26:25;14.50;99.90
15926;DHT22;8062;53.882;10.642;2022-09-09T03:27:26;14.50;99.90
15926;DHT22;8062;53.882;10.642;2022-09-09T03:28:27;14.50;99.90
15926;DHT22;8062;53.882;10.642;2022-09-09T03:29:33;14.60;99.90
15926;DHT22;8062;53.882;10.642;2022-09-09T03:30:37;14.50;99.90
15926;DHT22;8062;53.882;10.642;2022-09-09T03:31:39;14.60;99.90
15926;DHT22;8062;53.882;10.642;2022-09-09T03:32:40;14.50;99.90
15926;DHT22;8062;53.882;10.642;2022-09-09T03:33:41;14.50;99.90
15926;DHT22;8062;53.882;10.642;2022-09-09T03:34:45;14.50;99.90
15926;DHT22;8062;53.882;10.642;2022-09-09T03:35:48;14.50;99.90
15926;DHT22;8062;53.882;10.642;2022-09-09T03:36:50;14.50;99.90
15926;DHT22;8062;53.882;10.642;2022-09-09T03:37:52;14.50;99.90
15926;DHT22;8062;53.882;10.642;2022-09-09T03:38:54;14.50;99.90
15926;DHT22;8062;53.882;10.642;2022-09-09T03:39:56;14.50;99.90
15926;DHT22;8062;53.882;10.642;2022-09-09T03:40:59;14.60;99.90
15926;DHT22;8062;53.882;10.642;2022-09-09T03:42:01;14.60;99.90
15926;DHT22;8062;53.882;10.642;2022-09-09T03:43:07;14.60;99.90
15926;DHT22;8062;53.882;10.642;2022-09-09T03:44:08;14.50;99.90
15926;DHT22;8062;53.882;10.642;2022-09-09T03:45:13;14.50;99.90
15926;DHT22;8062;53.882;10.642;2022-09-09T03:46:16;14.50;99.90
15926;DHT22;8062;53.882;10.642;2022-09-09T03:47:19;14.50;99.90
15926;DHT22;8062;53.882;10.642;2022-09-09T03:48:20;14.50;99.90
15926;DHT22;8062;53.882;10.642;2022-09-09T03:49:21;14.50;99.90
15926;DHT22;8062;53.882;10.642;2022-09-09T03:50:23;14.50;99.90
15926;DHT22;8062;53.882;10.642;2022-09-09T03:51:24;14.50;99.90
15926;DHT22;8062;53.882;10.642;2022-09-09T03:52:25;14.50;99.90
15926;DHT22;8062;53.882;10.642;2022-09-09T03:53:28;14.50;99.90
15926;DHT22;8062;53.882;10.642;2022-09-09T03:54:30;14.50;99.90
15926;DHT22;8062;53.882;10.642;2022-09-09T03:55:31;14.50;99.90
15926;DHT22;8062;53.882;10.642;2022-09-09T03:56:33;14.50;99.90
15926;DHT22;8062;53.882;10.642;2022-09-09T03:57:35;14.50;99.90
15926;DHT22;8062;53.882;10.642;2022-09-09T03:58:37;14.50;99.90
15926;DHT22;8062;53.882;10.642;2022-09-09T03:59:41;14.50;99.90
15926;DHT22;8062;53.882;10.642;2022-09-09T04:00:55;14.50;99.90
15926;DHT22;8062;53.882;10.642;2022-09-09T04:01:56;14.50;99.90
15926;DHT22;8062;53.882;10.642;2022-09-09T04:02:59;14.50;99.90
15926;DHT22;8062;53.882;10.642;2022-09-09T04:04:01;14.50;99.90
15926;DHT22;8062;53.882;10.642;2022-09-09T04:05:03;14.50;99.90
15926;DHT22;8062;53.882;10.642;2022-09-09T04:06:05;14.50;99.90
15926;DHT22;8062;53.882;10.642;2022-09-09T04:07:08;14.50;99.90
15926;DHT22;8062;53.882;10.642;2022-09-09T04:08:09;14.50;99.90
15926;DHT22;8062;53.882;10.642;2022-09-09T04:09:12;14.60;99.90
15926;DHT22;8062;53.882;10.642;2022-09-09T04:10:13;14.60;99.90
15926;DHT22;8062;53.882;10.642;2022-09-09T04:11:15;14.60;99.90
15926;DHT22;8062;53.882;10.642;2022-09-09T04:12:17;14.60;99.90
15926;DHT22;8062;53.882;10.642;2022-09-09T04:13:19;14.50;99.90
15926;DHT22;8062;53.882;10.642;2022-09-09T04:14:21;14.50;99.90
15926;DHT22;8062;53.882;10.642;2022-09-09T04:15:22;14.50;99.90
15926;DHT22;8062;53.882;10.642;2022-09-09T04:16:24;14.50;99.90
15926;DHT22;8062;53.882;10.642;2022-09-09T04:17:25;14.50;99.90
15926;DHT22;8062;53.882;10.642;2022-09-09T04:18:26;14.50;99.90
15926;DHT22;8062;53.882;10.642;2022-09-09T04:19:28;14.50;99.90
15926;DHT22;8062;53.882;10.642;2022-09-09T04:20:30;14.50;99.90
15926;DHT22;8062;53.882;10.642;2022-09-09T04:21:32;14.50;99.90
15926;DHT22;8062;53.882;10.642;2022-09-09T04:22:34;14.50;99.90
15926;DHT22;8062;53.882;10.642;2022-09-09T04:23:36;14.50;99.90
15926;DHT22;8062;53.882;10.642;2022-09-09T04:24:37;14.50;99.90
15926;DHT22;8062;53.882;10.642;2022-09-09T04:25:43;14.40;99.90
15926;DHT22;8062;53.882;10.642;2022-09-09T04:26:45;14.50;99.90
15926;DHT22;8062;53.882;10.642;2022-09-09T04:27:52;14.50;99.90
15926;DHT22;8062;53.882;10.642;2022-09-09T04:28:54;14.40;99.90
15926;DHT22;8062;53.882;10.642;2022-09-09T04:29:55;14.40;99.90
15926;DHT22;8062;53.882;10.642;2022-09-09T04:31:03;14.40;99.90
15926;DHT22;8062;53.882;10.642;2022-09-09T04:32:04;14.40;99.90
15926;DHT22;8062;53.882;10.642;2022-09-09T04:33:07;14.40;99.90
15926;DHT22;8062;53.882;10.642;2022-09-09T04:34:09;14.40;99.90
15926;DHT22;8062;53.882;10.642;2022-09-09T04:35:10;14.40;99.90
15926;DHT22;8062;53.882;10.642;2022-09-09T04:36:11;14.30;99.90
15926;DHT22;8062;53.882;10.642;2022-09-09T04:37:13;14.40;99.90
15926;DHT22;8062;53.882;10.642;2022-09-09T04:38:16;14.30;99.90
15926;DHT22;8062;53.882;10.642;2022-09-09T04:39:17;14.40;99.90
15926;DHT22;8062;53.882;10.642;2022-09-09T04:40:18;14.30;99.90
15926;DHT22;8062;53.882;10.642;2022-09-09T04:41:20;14.30;99.90
15926;DHT22;8062;53.882;10.642;2022-09-09T04:42:24;14.30;99.90
15926;DHT22;8062;53.882;10.642;2022-09-09T04:43:26;14.30;99.90
15926;DHT22;8062;53.882;10.642;2022-09-09T04:44:27;14.30;99.90
15926;DHT22;8062;53.882;10.642;2022-09-09T04:45:29;14.30;99.90
15926;DHT22;8062;53.882;10.642;2022-09-09T04:46:31;14.30;99.90
15926;DHT22;8062;53.882;10.642;2022-09-09T04:47:32;14.30;99.90
15926;DHT22;8062;53.882;10.642;2022-09-09T04:48:35;14.30;99.90
15926;DHT22;8062;53.882;10.642;2022-09-09T04:49:38;14.30;99.90
15926;DHT22;8062;53.882;10.642;2022-09-09T04:50:40;14.40;99.90
15926;DHT22;8062;53.882;10.642;2022-09-09T04:51:41;14.40;99.90
15926;DHT22;8062;53.882;10.642;2022-09-09T04:52:43;14.40;99.90
15926;DHT22;8062;53.882;10.642;2022-09-09T04:53:44;14.30;99.90
15926;DHT22;8062;53.882;10.642;2022-09-09T04:54:47;14.40;99.90
15926;DHT22;8062;53.882;10.642;2022-09-09T04:55:49;14.40;99.90
15926;DHT22;8062;53.882;10.642;2022-09-09T04:56:50;14.40;99.90
15926;DHT22;8062;53.882;10.642;2022-09-09T04:57:51;14.30;99.90
15926;DHT22;8062;53.882;10.642;2022-09-09T04:58:52;14.30;99.90
15926;DHT22;8062;53.882;10.642;2022-09-09T04:59:57;14.30;99.90
15926;DHT22;8062;53.882;10.642;2022-09-09T05:01:12;14.30;99.90
15926;DHT22;8062;53.882;10.642;2022-09-09T05:02:15;14.30;99.90
15926;DHT22;8062;53.882;10.642;2022-09-09T05:03:16;14.30;99.90
15926;DHT22;8062;53.882;10.642;2022-09-09T05:04:17;14.30;99.90
15926;DHT22;8062;53.882;10.642;2022-09-09T05:05:20;14.30;99.90
15926;DHT22;8062;53.882;10.642;2022-09-09T05:06:23;14.30;99.90
15926;DHT22;8062;53.882;10.642;2022-09-09T05:07:31;14.30;99.90
15926;DHT22;8062;53.882;10.642;2022-09-09T05:08:32;14.30;99.90
15926;DHT22;8062;53.882;10.642;2022-09-09T05:09:33;14.30;99.90
15926;DHT22;8062;53.882;10.642;2022-09-09T05:10:37;14.30;99.90
15926;DHT22;8062;53.882;10.642;2022-09-09T05:11:39;14.30;99.90
15926;DHT22;8062;53.882;10.642;2022-09-09T05:13:12;14.30;99.90
15926;DHT22;8062;53.882;10.642;2022-09-09T05:14:13;14.30;99.90
15926;DHT22;8062;53.882;10.642;2022-09-09T05:15:15;14.30;99.90
15926;DHT22;8062;53.882;10.642;2022-09-09T05:16:17;14.30;99.90
15926;DHT22;8062;53.882;10.642;2022-09-09T05:17:19;14.40;99.90
15926;DHT22;8062;53.882;10.642;2022-09-09T05:18:20;14.40;99.90
15926;DHT22;8062;53.882;10.642;2022-09-09T05:19:23;14.40;99.90
15926;DHT22;8062;53.882;10.642;2022-09-09T05:20:27;14.40;99.90
15926;DHT22;8062;53.882;10.642;2022-09-09T05:21:28;14.40;99.90
15926;DHT22;8062;53.882;10.642;2022-09-09T05:22:31;14.40;99.90
15926;DHT22;8062;53.882;10.642;2022-09-09T05:23:33;14.40;99.90
15926;DHT22;8062;53.882;10.642;2022-09-09T05:24:34;14.40;99.90
15926;DHT22;8062;53.882;10.642;2022-09-09T05:25:37;14.40;99.90
15926;DHT22;8062;53.882;10.642;2022-09-09T05:26:39;14.40;99.90
15926;DHT22;8062;53.882;10.642;2022-09-09T05:27:41;14.40;99.90
15926;DHT22;8062;53.882;10.642;2022-09-09T05:28:42;14.40;99.90
15926;DHT22;8062;53.882;10.642;2022-09-09T05:29:43;14.40;99.90
15926;DHT22;8062;53.882;10.642;2022-09-09T05:30:45;14.40;99.90
15926;DHT22;8062;53.882;10.642;2022-09-09T05:31:46;14.40;99.90
15926;DHT22;8062;53.882;10.642;2022-09-09T05:32:50;14.30;99.90
15926;DHT22;8062;53.882;10.642;2022-09-09T05:33:52;14.30;99.90
15926;DHT22;8062;53.882;10.642;2022-09-09T05:34:54;14.30;99.90
15926;DHT22;8062;53.882;10.642;2022-09-09T05:35:59;14.30;99.90
15926;DHT22;8062;53.882;10.642;2022-09-09T05:37:02;14.30;99.90
15926;DHT22;8062;53.882;10.642;2022-09-09T05:38:06;14.30;99.90
15926;DHT22;8062;53.882;10.642;2022-09-09T05:39:07;14.30;99.90
15926;DHT22;8062;53.882;10.642;2022-09-09T05:40:09;14.30;99.90
15926;DHT22;8062;53.882;10.642;2022-09-09T05:41:12;14.30;99.90
15926;DHT22;8062;53.882;10.642;2022-09-09T05:42:16;14.30;99.90
15926;DHT22;8062;53.882;10.642;2022-09-09T05:43:17;14.30;99.90
15926;DHT22;8062;53.882;10.642;2022-09-09T05:44:18;14.30;99.90
15926;DHT22;8062;53.882;10.642;2022-09-09T05:45:20;14.30;99.90
15926;DHT22;8062;53.882;10.642;2022-09-09T05:46:23;14.30;99.90
15926;DHT22;8062;53.882;10.642;2022-09-09T05:47:26;14.30;99.90
15926;DHT22;8062;53.882;10.642;2022-09-09T05:48:39;14.30;99.90
15926;DHT22;8062;53.882;10.642;2022-09-09T05:49:41;14.30;99.90
15926;DHT22;8062;53.882;10.642;2022-09-09T05:50:43;14.30;99.90
15926;DHT22;8062;53.882;10.642;2022-09-09T05:51:45;14.30;99.90
15926;DHT22;8062;53.882;10.642;2022-09-09T05:52:48;14.30;99.90
15926;DHT22;8062;53.882;10.642;2022-09-09T05:53:51;14.30;99.90
15926;DHT22;8062;53.882;10.642;2022-09-09T05:54:53;14.30;99.90
15926;DHT22;8062;53.882;10.642;2022-09-09T05:56:05;14.30;99.90
15926;DHT22;8062;53.882;10.642;2022-09-09T05:57:08;14.30;99.90
15926;DHT22;8062;53.882;10.642;2022-09-09T05:58:10;14.40;99.90
15926;DHT22;8062;53.882;10.642;2022-09-09T05:59:12;14.40;99.90
15926;DHT22;8062;53.882;10.642;2022-09-09T06:00:14;14.40;99.90
15926;DHT22;8062;53.882;10.642;2022-09-09T06:01:21;14.40;99.90
15926;DHT22;8062;53.882;10.642;2022-09-09T06:02:22;14.50;99.90
15926;DHT22;8062;53.882;10.642;2022-09-09T06:03:24;14.50;99.90
15926;DHT22;8062;53.882;10.642;2022-09-09T06:04:26;14.50;99.90
15926;DHT22;8062;53.882;10.642;2022-09-09T06:05:27;14.50;99.90
15926;DHT22;8062;53.882;10.642;2022-09-09T06:06:37;14.50;99.90
15926;DHT22;8062;53.882;10.642;2022-09-09T06:07:46;14.50;99.90
15926;DHT22;8062;53.882;10.642;2022-09-09T06:08:49;14.40;99.90
15926;DHT22;8062;53.882;10.642;2022-09-09T06:09:51;14.40;99.90
15926;DHT22;8062;53.882;10.642;2022-09-09T06:10:52;14.50;99.90
15926;DHT22;8062;53.882;10.642;2022-09-09T06:11:53;14.50;99.90
15926;DHT22;8062;53.882;10.642;2022-09-09T06:12:56;14.50;99.90
15926;DHT22;8062;53.882;10.642;2022-09-09T06:13:58;14.50;99.90
15926;DHT22;8062;53.882;10.642;2022-09-09T06:14:59;14.50;99.90
15926;DHT22;8062;53.882;10.642;2022-09-09T06:16:00;14.60;99.90
15926;DHT22;8062;53.882;10.642;2022-09-09T06:17:02;14.60;99.90
15926;DHT22;8062;53.882;10.642;2022-09-09T06:18:04;14.50;99.90
15926;DHT22;8062;53.882;10.642;2022-09-09T06:19:06;14.50;99.90
15926;DHT22;8062;53.882;10.642;2022-09-09T06:20:08;14.60;99.90
15926;DHT22;8062;53.882;10.642;2022-09-09T06:21:39;14.60;99.90
15926;DHT22;8062;53.882;10.642;2022-09-09T06:22:43;14.60;99.90
15926;DHT22;8062;53.882;10.642;2022-09-09T06:23:47;14.60;99.90
15926;DHT22;8062;53.882;10.642;2022-09-09T06:24:49;14.60;99.90
15926;DHT22;8062;53.882;10.642;2022-09-09T06:25:50;14.70;99.90
15926;DHT22;8062;53.882;10.642;2022-09-09T06:26:51;14.70;99.90
15926;DHT22;8062;53.882;10.642;2022-09-09T06:28:02;14.80;99.90
15926;DHT22;8062;53.882;10.642;2022-09-09T06:29:04;14.70;99.90
15926;DHT22;8062;53.882;10.642;2022-09-09T06:30:06;14.70;99.90
15926;DHT22;8062;53.882;10.642;2022-09-09T06:31:12;14.60;99.90
15926;DHT22;8062;53.882;10.642;2022-09-09T06:32:13;14.70;99.90
15926;DHT22;8062;53.882;10.642;2022-09-09T06:33:14;14.60;99.90
15926;DHT22;8062;53.882;10.642;2022-09-09T06:34:15;14.60;99.90
15926;DHT22;8062;53.882;10.642;2022-09-09T06:35:21;14.70;99.90
15926;DHT22;8062;53.882;10.642;2022-09-09T06:36:23;14.60;99.90
15926;DHT22;8062;53.882;10.642;2022-09-09T06:37:24;14.60;99.90
15926;DHT22;8062;53.882;10.642;2022-09-09T06:38:27;14.70;99.90
15926;DHT22;8062;53.882;10.642;2022-09-09T06:39:29;14.60;99.90
15926;DHT22;8062;53.882;10.642;2022-09-09T06:40:30;14.60;99.90
15926;DHT22;8062;53.882;10.642;2022-09-09T06:41:32;14.70;99.90
15926;DHT22;8062;53.882;10.642;2022-09-09T06:42:34;14.70;99.90
15926;DHT22;8062;53.882;10.642;2022-09-09T06:43:53;14.70;99.90
15926;DHT22;8062;53.882;10.642;2022-09-09T06:45:03;14.70;99.90
15926;DHT22;8062;53.882;10.642;2022-09-09T06:46:18;14.70;99.90
15926;DHT22;8062;53.882;10.642;2022-09-09T06:47:20;14.70;99.90
15926;DHT22;8062;53.882;10.642;2022-09-09T06:48:22;14.80;99.90
15926;DHT22;8062;53.882;10.642;2022-09-09T06:49:24;14.80;99.90
15926;DHT22;8062;53.882;10.642;2022-09-09T06:50:25;14.80;99.90
15926;DHT22;8062;53.882;10.642;2022-09-09T06:51:28;14.80;99.90
15926;DHT22;8062;53.882;10.642;2022-09-09T06:52:30;14.80;99.90
15926;DHT22;8062;53.882;10.642;2022-09-09T06:53:35;14.90;99.90
15926;DHT22;8062;53.882;10.642;2022-09-09T06:54:37;14.90;99.90
15926;DHT22;8062;53.882;10.642;2022-09-09T06:55:39;14.90;99.90
15926;DHT22;8062;53.882;10.642;2022-09-09T06:56:42;14.90;99.90
15926;DHT22;8062;53.882;10.642;2022-09-09T06:57:48;14.90;99.90
15926;DHT22;8062;53.882;10.642;2022-09-09T06:58:58;14.90;99.90
15926;DHT22;8062;53.882;10.642;2022-09-09T07:00:04;14.90;99.90
15926;DHT22;8062;53.882;10.642;2022-09-09T07:01:06;14.90;99.90
15926;DHT22;8062;53.882;10.642;2022-09-09T07:02:08;14.90;99.90
15926;DHT22;8062;53.882;10.642;2022-09-09T07:03:10;15.00;99.90
15926;DHT22;8062;53.882;10.642;2022-09-09T07:04:11;15.00;99.90
15926;DHT22;8062;53.882;10.642;2022-09-09T07:05:15;14.90;99.90
15926;DHT22;8062;53.882;10.642;2022-09-09T07:07:20;15.00;99.90
15926;DHT22;8062;53.882;10.642;2022-09-09T07:08:22;15.00;99.90
15926;DHT22;8062;53.882;10.642;2022-09-09T07:09:23;15.00;99.90
15926;DHT22;8062;53.882;10.642;2022-09-09T07:10:26;14.90;99.90
15926;DHT22;8062;53.882;10.642;2022-09-09T07:11:29;14.90;99.90
15926;DHT22;8062;53.882;10.642;2022-09-09T07:12:31;14.90;99.90
15926;DHT22;8062;53.882;10.642;2022-09-09T07:13:35;15.00;99.90
15926;DHT22;8062;53.882;10.642;2022-09-09T07:14:36;14.90;99.90
15926;DHT22;8062;53.882;10.642;2022-09-09T07:15:42;15.00;99.90
15926;DHT22;8062;53.882;10.642;2022-09-09T07:16:44;15.00;99.90
15926;DHT22;8062;53.882;10.642;2022-09-09T07:17:45;15.00;99.90
15926;DHT22;8062;53.882;10.642;2022-09-09T07:18:47;15.00;99.90
15926;DHT22;8062;53.882;10.642;2022-09-09T07:19:48;15.00;99.90
15926;DHT22;8062;53.882;10.642;2022-09-09T07:20:54;15.00;99.90
15926;DHT22;8062;53.882;10.642;2022-09-09T07:21:55;15.00;99.90
15926;DHT22;8062;53.882;10.642;2022-09-09T07:22:58;15.20;99.90
15926;DHT22;8062;53.882;10.642;2022-09-09T07:24:01;15.20;99.90
15926;DHT22;8062;53.882;10.642;2022-09-09T07:25:03;15.30;99.90
15926;DHT22;8062;53.882;10.642;2022-09-09T07:26:12;15.30;99.90